createdAt,value
2022-11-25T00:01:23.748Z,98941.25
2022-11-25T00:03:51.819Z,98933.06
2022-11-25T00:06:23.243Z,98945.41
2022-11-25T00:08:56.048Z,98939.13
2022-11-25T00:11:23.593Z,98945.34
2022-11-25T00:13:50.793Z,98935.50
2022-11-25T00:16:19.969Z,98948.50
2022-11-25T00:18:49.873Z,98953.88
2022-11-25T00:21:19.445Z,98953.38
2022-11-25T00:23:58.698Z,98956.41
2022-11-25T00:26:26.839Z,98952.84
2022-11-25T00:28:54.898Z,98967.56
2022-11-25T00:31:24.732Z,98954.31
2022-11-25T00:33:52.262Z,98876.28
2022-11-25T00:36:34.168Z,98948.31
2022-11-25T00:39:11.058Z,98963.13
2022-11-25T00:41:56.981Z,98954.00
2022-11-25T00:44:36.646Z,98966.06
2022-11-25T00:47:12.070Z,98952.59
2022-11-25T00:49:41.321Z,98963.13
2022-11-25T00:52:09.567Z,98962.59
2022-11-25T00:54:36.744Z,98948.94
2022-11-25T00:57:04.335Z,98960.81
2022-11-25T00:59:31.612Z,98962.72
2022-11-25T01:01:59.747Z,98967.31
2022-11-25T01:04:27.021Z,98961.63
2022-11-25T01:06:58.284Z,98962.53
2022-11-25T01:09:25.843Z,98954.63
2022-11-25T01:11:53.359Z,98960.81
2022-11-25T01:14:22.002Z,98962.34
2022-11-25T01:16:49.617Z,98962.34
2022-11-25T01:19:17.797Z,98968.84
2022-11-25T01:21:44.819Z,98963.75
2022-11-25T01:24:14.495Z,98964.38
2022-11-25T01:26:42.532Z,98962.69
2022-11-25T01:29:15.434Z,98968.66
2022-11-25T01:31:42.933Z,98960.25
2022-11-25T01:34:23.081Z,98973.09
2022-11-25T01:36:50.803Z,98962.16
2022-11-25T01:39:26.882Z,98972.91
2022-11-25T01:41:58.165Z,98964.19
2022-11-25T01:44:29.317Z,98956.28
2022-11-25T01:46:59.750Z,98963.56
2022-11-25T01:50:02.857Z,98971.47
2022-11-25T01:52:44.226Z,98974.44
2022-11-25T01:55:11.108Z,98962.16
2022-11-25T01:57:44.394Z,98967.44
2022-11-25T02:00:12.348Z,98969.84
2022-11-25T02:02:46.715Z,98971.19
2022-11-25T02:05:17.939Z,98938.28
2022-11-25T02:07:48.665Z,98983.53
2022-11-25T02:10:24.228Z,98974.22
2022-11-25T02:12:52.644Z,98981.63
2022-11-25T02:15:20.667Z,98979.59
2022-11-25T02:17:48.191Z,98983.88
2022-11-25T02:20:17.864Z,98978.66
2022-11-25T02:23:05.752Z,98987.69
2022-11-25T02:25:35.921Z,98989.09
2022-11-25T02:28:17.419Z,98989.31
2022-11-25T02:30:45.601Z,98992.34
2022-11-25T02:33:13.221Z,99003.13
2022-11-25T02:35:46.668Z,99003.50
2022-11-25T02:38:19.235Z,98999.00
2022-11-25T02:40:54.910Z,98991.31
2022-11-25T02:43:22.689Z,98992.34
2022-11-25T02:46:02.398Z,99001.25
2022-11-25T02:49:00.973Z,98999.00
2022-11-25T02:51:22.971Z,98997.38
2022-11-25T02:53:50.490Z,99000.44
2022-11-25T02:56:23.793Z,98991.72
2022-11-25T02:58:50.801Z,98992.94
2022-11-25T03:01:18.318Z,99010.38
2022-11-25T03:03:45.479Z,99002.25
2022-11-25T03:06:14.760Z,98997.91
2022-11-25T03:08:45.009Z,99009.16
2022-11-25T03:11:13.310Z,99005.09
2022-11-25T03:13:41.083Z,98992.22
2022-11-25T03:16:09.184Z,99005.22
2022-11-25T03:18:36.278Z,99018.00
2022-11-25T03:21:03.459Z,99009.44
2022-11-25T03:23:30.544Z,99002.66
2022-11-25T03:25:57.587Z,99006.91
2022-11-25T03:28:24.670Z,99012.00
2022-11-25T03:30:51.770Z,99015.56
2022-11-25T03:33:18.661Z,99014.22
2022-11-25T03:35:48.451Z,99011.19
2022-11-25T03:38:15.275Z,99019.63
2022-11-25T03:40:42.455Z,99006.91
2022-11-25T03:43:09.787Z,99009.56
2022-11-25T03:45:37.053Z,99019.88
2022-11-25T03:48:07.169Z,99005.28
2022-11-25T03:50:34.323Z,99020.81
2022-11-25T03:53:01.840Z,99006.31
2022-11-25T03:55:29.129Z,98986.09
2022-11-25T03:57:56.172Z,99005.09
2022-11-25T04:00:24.557Z,99013.59
2022-11-25T04:02:58.722Z,99009.88
2022-11-25T04:05:25.704Z,99005.81
2022-11-25T04:07:57.886Z,99012.09
2022-11-25T04:10:27.186Z,99012.78
2022-11-25T04:12:55.349Z,99019.78
2022-11-25T04:15:28.534Z,99017.06
2022-11-25T04:17:57.841Z,99026.44
2022-11-25T04:20:25.205Z,99024.00
2022-11-25T04:23:12.773Z,99027.78
2022-11-25T04:25:45.317Z,99027.84
2022-11-25T04:28:18.458Z,99029.06
2022-11-25T04:30:45.347Z,99032.91
2022-11-25T04:33:12.991Z,99031.50
2022-11-25T04:35:39.997Z,99034.22
2022-11-25T04:38:08.596Z,99028.09
2022-11-25T04:40:36.863Z,99038.75
2022-11-25T04:43:15.927Z,99031.13
2022-11-25T04:46:12.984Z,99039.25
2022-11-25T04:48:39.156Z,99028.47
2022-11-25T04:51:06.340Z,99029.06
2022-11-25T04:53:33.610Z,99038.81
2022-11-25T04:56:00.567Z,99046.72
2022-11-25T04:58:49.238Z,99052.72
2022-11-25T05:01:16.431Z,99048.06
2022-11-25T05:03:54.485Z,99055.06
2022-11-25T05:06:25.922Z,99052.94
2022-11-25T05:08:53.462Z,99063.78
2022-11-25T05:11:22.079Z,99066.00
2022-11-25T05:13:50.315Z,99078.56
2022-11-25T05:16:18.839Z,99076.44
2022-11-25T05:18:46.176Z,99082.25
2022-11-25T05:21:13.410Z,99081.81
2022-11-25T05:23:42.449Z,99086.69
2022-11-25T05:26:10.186Z,99095.44
2022-11-25T05:28:43.663Z,99099.88
2022-11-25T05:31:12.025Z,99106.06
2022-11-25T05:33:39.182Z,99105.78
2022-11-25T05:36:08.550Z,99122.19
2022-11-25T05:38:46.709Z,99114.13
2022-11-25T05:41:19.647Z,99128.78
2022-11-25T05:43:47.876Z,99129.00
2022-11-25T05:46:15.670Z,99141.84
2022-11-25T05:48:47.759Z,99141.34
2022-11-25T05:51:15.133Z,99139.56
2022-11-25T05:53:42.157Z,99136.75
2022-11-25T05:56:10.531Z,99149.91
2022-11-25T05:59:07.482Z,99138.97
2022-11-25T06:01:45.946Z,99147.03
2022-11-25T06:04:14.591Z,99155.22
2022-11-25T06:06:42.129Z,99159.69
2022-11-25T06:09:09.132Z,99164.34
2022-11-25T06:11:39.147Z,99171.44
2022-11-25T06:14:06.349Z,99166.25
2022-11-25T06:16:33.827Z,99154.88
2022-11-25T06:19:10.447Z,99173.28
2022-11-25T06:21:37.778Z,99178.59
2022-11-25T06:24:05.388Z,99182.53
2022-11-25T06:26:32.734Z,99174.69
2022-11-25T06:29:03.840Z,99184.38
2022-11-25T06:31:31.152Z,99181.41
2022-11-25T06:34:16.000Z,99189.84
2022-11-25T06:36:43.392Z,99200.88
2022-11-25T06:39:10.478Z,99180.00
2022-11-25T06:41:37.792Z,99192.06
2022-11-25T06:44:08.630Z,99190.66
2022-11-25T06:46:35.942Z,99198.19
2022-11-25T06:49:03.265Z,99196.06
2022-11-25T06:51:31.059Z,99186.97
2022-11-25T06:54:00.373Z,99191.22
2022-11-25T06:56:28.743Z,99203.50
2022-11-25T06:58:56.301Z,99199.56
2022-11-25T07:01:29.151Z,99209.91
2022-11-25T07:04:00.772Z,99208.44
2022-11-25T07:06:28.025Z,99222.25
2022-11-25T07:08:58.121Z,99227.69
2022-11-25T07:11:26.736Z,99233.38
2022-11-25T07:14:00.265Z,99244.31
2022-11-25T07:16:31.091Z,99250.53
2022-11-25T07:19:02.194Z,99239.38
2022-11-25T07:21:30.768Z,99249.59
2022-11-25T07:24:00.561Z,99261.50
2022-11-25T07:26:30.007Z,99258.13
2022-11-25T07:29:02.736Z,99264.69
2022-11-25T07:31:33.883Z,99272.66
2022-11-25T07:34:06.195Z,99277.72
2022-11-25T07:36:35.100Z,99278.91
2022-11-25T07:39:05.805Z,99276.47
2022-11-25T07:41:35.925Z,99280.31
2022-11-25T07:44:05.891Z,99265.22
2022-11-25T07:46:46.236Z,99282.03
2022-11-25T07:49:16.403Z,99286.81
2022-11-25T07:51:51.233Z,99286.91
2022-11-25T07:54:18.292Z,99292.88
2022-11-25T07:56:46.020Z,99287.63
2022-11-25T07:59:16.300Z,99273.41
2022-11-25T08:01:44.513Z,99285.88
2022-11-25T08:04:18.282Z,99283.00
2022-11-25T08:06:48.901Z,99294.72
2022-11-25T08:09:20.985Z,99291.88
2022-11-25T08:11:49.658Z,99286.84
2022-11-25T08:14:18.104Z,99300.34
2022-11-25T08:16:45.417Z,99307.16
2022-11-25T08:19:15.619Z,99312.84
2022-11-25T08:21:42.973Z,99308.25
2022-11-25T08:24:19.353Z,99318.72
2022-11-25T08:26:46.972Z,99315.16
2022-11-25T08:29:16.109Z,99314.31
2022-11-25T08:31:43.695Z,99302.16
2022-11-25T08:34:22.075Z,99272.88
2022-11-25T08:36:52.303Z,99317.28
2022-11-25T08:39:51.908Z,99325.91
2022-11-25T08:42:08.681Z,99330.00
2022-11-25T08:44:36.568Z,99326.06
2022-11-25T08:47:04.085Z,99326.84
2022-11-25T08:49:33.811Z,99325.00
2022-11-25T08:52:10.703Z,99326.63
2022-11-25T08:54:38.389Z,99330.00
2022-11-25T08:57:09.132Z,99337.94
2022-11-25T08:59:36.952Z,99343.16
2022-11-25T09:02:04.662Z,99344.66
2022-11-25T09:04:38.141Z,99343.97
2022-11-25T09:10:47.347Z,99345.09
2022-11-25T09:13:15.979Z,99361.53
2022-11-25T09:15:43.547Z,99355.25
2022-11-25T09:18:11.622Z,99349.88
2022-11-25T09:20:43.920Z,99358.47
2022-11-25T09:26:30.447Z,99355.59
2022-11-25T09:28:58.136Z,99345.44
2022-11-25T09:31:25.158Z,99348.44
2022-11-25T09:33:52.891Z,99358.28
2022-11-25T09:36:21.074Z,99355.97
2022-11-25T09:38:49.024Z,99347.88
2022-11-25T09:42:05.561Z,99356.41
2022-11-25T09:45:13.014Z,99356.31
2022-11-25T09:47:57.564Z,99347.88
2022-11-25T09:50:48.971Z,99354.31
2022-11-25T09:53:31.854Z,99352.50
2022-11-25T09:56:28.264Z,99349.03
2022-11-25T09:59:10.403Z,99355.97
2022-11-25T10:02:04.609Z,99321.78
2022-11-25T10:04:42.769Z,99342.53
2022-11-25T10:07:20.104Z,99339.09
2022-11-25T10:09:48.020Z,99355.56
2022-11-25T10:12:31.104Z,99364.31
2022-11-25T10:15:07.348Z,99339.31
2022-11-25T10:17:43.364Z,99365.41
2022-11-25T10:20:20.519Z,99354.75
2022-11-25T10:22:55.345Z,99362.69
2022-11-25T10:25:30.552Z,99355.16
2022-11-25T10:28:03.448Z,99369.19
2022-11-25T10:30:51.144Z,99371.81
2022-11-25T10:33:36.421Z,99377.03
2022-11-25T10:36:18.553Z,99366.34
2022-11-25T10:38:56.355Z,99380.91
2022-11-25T10:41:34.084Z,99366.03
2022-11-25T10:48:50.851Z,99380.97
2022-11-25T10:51:51.156Z,99374.88
2022-11-25T10:54:27.572Z,99375.28
2022-11-25T10:57:03.234Z,99373.88
2022-11-25T10:59:38.885Z,99372.75
2022-11-25T11:02:19.554Z,99375.50
2022-11-25T11:04:56.590Z,99364.31
2022-11-25T11:07:27.208Z,99377.75
2022-11-25T11:09:54.833Z,99365.84
2022-11-25T11:12:25.960Z,99372.06
2022-11-25T11:14:55.110Z,99370.84
2022-11-25T11:17:37.180Z,99364.53
2022-11-25T11:20:07.609Z,99366.66
2022-11-25T11:22:36.530Z,99360.44
2022-11-25T11:25:21.631Z,99365.53
2022-11-25T11:27:49.502Z,99353.34
2022-11-25T11:30:23.649Z,99370.22
2022-11-25T11:33:00.600Z,99377.13
2022-11-25T11:35:53.523Z,99369.81
2022-11-25T11:38:31.642Z,99368.81
2022-11-25T11:41:29.309Z,99369.00
2022-11-25T11:43:59.305Z,99357.09
2022-11-25T11:47:01.904Z,99357.19
2022-11-25T11:49:54.972Z,99366.75
2022-11-25T11:52:52.504Z,99365.13
2022-11-25T11:55:28.942Z,99376.94
2022-11-25T11:58:39.429Z,99363.50
2022-11-25T12:01:31.504Z,99382.00
2022-11-25T12:04:15.265Z,99375.19
2022-11-25T12:06:46.590Z,99375.69
2022-11-25T12:09:20.606Z,99387.91
2022-11-25T12:11:54.514Z,99387.59
2022-11-25T12:14:43.055Z,99376.72
2022-11-25T12:17:27.234Z,99365.75
2022-11-25T12:20:22.489Z,99334.94
2022-11-25T12:23:20.578Z,99394.81
2022-11-25T12:25:52.428Z,99392.59
2022-11-25T12:28:29.609Z,99384.94
2022-11-25T12:31:06.449Z,99390.03
2022-11-25T12:33:48.902Z,99394.91
2022-11-25T12:36:21.896Z,99388.81
2022-11-25T12:39:12.198Z,99400.72
2022-11-25T12:42:05.199Z,99388.31
2022-11-25T12:44:44.281Z,99391.34
2022-11-25T12:47:12.314Z,99403.75
2022-11-25T12:49:44.290Z,99397.66
2022-11-25T12:52:33.531Z,99400.09
2022-11-25T12:55:19.022Z,99400.13
2022-11-25T12:58:10.753Z,99395.63
2022-11-25T13:01:22.556Z,99400.41
2022-11-25T13:04:10.203Z,99400.72
2022-11-25T13:07:00.052Z,99409.47
2022-11-25T13:09:48.138Z,99411.09
2022-11-25T13:12:18.950Z,99401.56
2022-11-25T13:14:50.829Z,99419.44
2022-11-25T13:17:27.402Z,99412.94
2022-11-25T13:20:30.606Z,99419.25
2022-11-25T13:23:19.282Z,99413.44
2022-11-25T13:25:51.129Z,99420.25
2022-11-25T13:28:35.235Z,99422.50
2022-11-25T13:31:16.699Z,99422.50
2022-11-25T13:33:57.241Z,99428.91
2022-11-25T13:36:43.112Z,99433.88
2022-11-25T13:39:18.246Z,99433.78
2022-11-25T13:42:34.645Z,99427.59
2022-11-25T13:45:01.802Z,99430.53
2022-11-25T13:47:40.937Z,99437.66
2022-11-25T13:50:26.348Z,99439.19
2022-11-25T13:53:03.802Z,99434.50
2022-11-25T13:55:37.438Z,99433.88
2022-11-25T13:58:10.390Z,99433.47
2022-11-25T14:00:37.488Z,99441.09
2022-11-25T14:03:20.179Z,99437.84
2022-11-25T14:05:47.192Z,99453.00
2022-11-25T14:08:39.341Z,99440.38
2022-11-25T14:11:10.060Z,99448.41
2022-11-25T14:14:07.523Z,99449.31
2022-11-25T14:17:03.723Z,99449.41
2022-11-25T14:19:55.153Z,99450.91
2022-11-25T14:22:50.692Z,99458.13
2022-11-25T14:25:31.111Z,99455.38
2022-11-25T14:28:30.581Z,99455.16
2022-11-25T14:31:04.917Z,99460.44
2022-11-25T14:33:48.777Z,99453.97
2022-11-25T14:36:28.093Z,99455.16
2022-11-25T14:39:10.605Z,99459.31
2022-11-25T14:41:40.624Z,99457.28
2022-11-25T14:44:16.055Z,99463.25
2022-11-25T14:46:53.254Z,99463.56
2022-11-25T14:49:46.633Z,99457.34
2022-11-25T14:52:30.370Z,99461.78
2022-11-25T14:54:58.630Z,99456.09
2022-11-25T14:57:29.722Z,99461.50
2022-11-25T15:00:03.621Z,99462.00
2022-11-25T15:02:34.582Z,99462.91
2022-11-25T15:05:23.880Z,99461.88
2022-11-25T15:08:00.843Z,99464.38
2022-11-25T15:10:42.306Z,99472.09
2022-11-25T15:13:12.976Z,99467.22
2022-11-25T15:15:40.442Z,99469.44
2022-11-25T15:18:10.055Z,99475.34
2022-11-25T15:20:38.880Z,99472.31
2022-11-25T15:23:05.860Z,99472.91
2022-11-25T15:25:32.738Z,99470.53
2022-11-25T15:27:59.912Z,99485.81
2022-11-25T15:30:32.168Z,99487.44
2022-11-25T15:33:10.189Z,99496.47
2022-11-25T15:35:37.712Z,99494.94
2022-11-25T15:38:37.982Z,99503.75
2022-11-25T15:41:06.760Z,99495.22
2022-11-25T15:43:37.537Z,99490.25
2022-11-25T15:46:05.969Z,99484.63
2022-11-25T15:48:46.359Z,99495.81
2022-11-25T15:51:34.921Z,99485.22
2022-11-25T15:54:28.559Z,99486.38
2022-11-25T15:57:06.244Z,99494.97
2022-11-25T15:59:56.216Z,99487.63
2022-11-25T16:02:50.437Z,99497.28
2022-11-25T16:05:26.596Z,99503.25
2022-11-25T16:07:53.845Z,99495.66
2022-11-25T16:10:34.396Z,99501.13
2022-11-25T16:13:23.486Z,99491.28
2022-11-25T16:16:02.295Z,99503.47
2022-11-25T16:18:56.469Z,99494.28
2022-11-25T16:21:30.581Z,99506.28
2022-11-25T16:24:10.333Z,99501.97
2022-11-25T16:26:51.227Z,99511.28
2022-11-25T16:29:41.910Z,99522.25
2022-11-25T16:32:29.795Z,99519.00
2022-11-25T16:35:11.561Z,99523.94
2022-11-25T16:37:38.626Z,99513.94
2022-11-25T16:40:06.324Z,99529.25
2022-11-25T16:42:33.934Z,99532.28
2022-11-25T16:45:01.639Z,99539.69
2022-11-25T16:47:28.735Z,99531.81
2022-11-25T16:49:55.771Z,99536.41
2022-11-25T16:52:22.905Z,99526.44
2022-11-25T16:54:49.925Z,99540.13
2022-11-25T16:57:22.509Z,99549.97
2022-11-25T16:59:55.765Z,99555.22
2022-11-25T17:02:24.473Z,99546.53
2022-11-25T17:04:51.653Z,99557.19
2022-11-25T17:07:36.070Z,99552.28
2022-11-25T17:10:04.291Z,99542.00
2022-11-25T17:12:34.541Z,99558.13
2022-11-25T17:15:04.747Z,99548.56
2022-11-25T17:17:32.488Z,99558.63
2022-11-25T17:19:59.520Z,99563.25
2022-11-25T17:22:28.693Z,99559.16
2022-11-25T17:24:58.640Z,99556.44
2022-11-25T17:27:29.654Z,99560.56
2022-11-25T17:29:58.611Z,99560.09
2022-11-25T17:32:26.782Z,99560.34
2022-11-25T17:34:54.649Z,99562.25
2022-11-25T17:37:24.756Z,99567.22
2022-11-25T17:39:53.556Z,99569.50
2022-11-25T17:42:31.663Z,99542.28
2022-11-25T17:44:59.862Z,99571.44
2022-11-25T17:47:27.018Z,99576.13
2022-11-25T17:49:54.688Z,99568.53
2022-11-25T17:52:21.883Z,99555.28
2022-11-25T17:54:48.882Z,99580.97
2022-11-25T17:57:19.876Z,99577.50
2022-11-25T17:59:47.282Z,99556.84
2022-11-25T18:02:19.854Z,99584.66
2022-11-25T18:04:47.070Z,99589.66
2022-11-25T18:07:14.656Z,99588.31
2022-11-25T18:10:01.147Z,99591.38
2022-11-25T18:12:34.041Z,99594.16
2022-11-25T18:15:08.679Z,99599.38
2022-11-25T18:17:37.886Z,99593.94
2022-11-25T18:20:25.304Z,99598.06
2022-11-25T18:22:53.277Z,99607.94
2022-11-25T18:25:24.348Z,99608.22
2022-11-25T18:27:56.652Z,99606.03
2022-11-25T18:30:28.295Z,99610.69
2022-11-25T18:32:57.515Z,99608.56
2022-11-25T18:35:36.353Z,99607.50
2022-11-25T18:38:05.091Z,99612.94
2022-11-25T18:43:49.015Z,99624.41
2022-11-25T18:46:16.229Z,99635.88
2022-11-25T18:48:43.455Z,99625.50
2022-11-25T18:51:13.217Z,99635.88
2022-11-25T18:53:40.841Z,99635.91
2022-11-25T18:56:17.480Z,99632.91
2022-11-25T18:58:50.830Z,99622.25
2022-11-25T19:01:22.239Z,99639.16
2022-11-25T19:03:51.237Z,99644.91
2022-11-25T19:06:18.250Z,99641.63
2022-11-25T19:08:46.354Z,99656.63
2022-11-25T19:11:21.963Z,99659.09
2022-11-25T19:13:53.455Z,99652.81
2022-11-25T19:16:22.821Z,99650.63
2022-11-25T19:18:53.179Z,99653.91
2022-11-25T19:21:21.271Z,99668.09
2022-11-25T19:23:58.890Z,99658.53
2022-11-25T19:26:42.533Z,99665.38
2022-11-25T19:29:18.619Z,99667.00
2022-11-25T19:31:49.781Z,99670.00
2022-11-25T19:34:31.996Z,99667.56
2022-11-25T19:37:13.596Z,99682.31
2022-11-25T19:39:57.471Z,99681.47
2022-11-25T19:42:34.975Z,99681.75
2022-11-25T19:45:13.199Z,99691.31
2022-11-25T19:47:40.924Z,99695.69
2022-11-25T19:50:08.470Z,99693.78
2022-11-25T19:52:43.823Z,99701.13
2022-11-25T19:55:34.194Z,99691.03
2022-11-25T19:58:07.073Z,99698.69
2022-11-25T20:00:37.087Z,99698.41
2022-11-25T20:03:05.069Z,99703.31
2022-11-25T20:05:38.128Z,99700.59
2022-11-25T20:08:05.734Z,99697.59
2022-11-25T20:10:33.666Z,99688.31
2022-11-25T20:13:02.057Z,99706.31
2022-11-25T20:15:29.015Z,99709.06
2022-11-25T20:18:00.179Z,99703.06
2022-11-25T20:20:32.877Z,99712.34
2022-11-25T20:23:04.148Z,99707.16
2022-11-25T20:25:31.377Z,99702.78
2022-11-25T20:27:58.943Z,99685.03
2022-11-25T20:30:29.022Z,99706.59
2022-11-25T20:32:56.137Z,99712.31
2022-11-25T20:35:25.995Z,99703.03
2022-11-25T20:37:58.345Z,99713.41
2022-11-25T20:40:33.472Z,99714.50
2022-11-25T20:43:00.591Z,99702.50
2022-11-25T20:45:27.696Z,99718.31
2022-11-25T20:47:54.702Z,99711.22
2022-11-25T20:50:22.163Z,99713.41
2022-11-25T20:52:50.653Z,99725.41
2022-11-25T20:55:24.468Z,99721.03
2022-11-25T20:57:52.739Z,99719.41
2022-11-25T21:00:23.769Z,99739.59
2022-11-25T21:02:51.585Z,99724.03
2022-11-25T21:05:19.489Z,99729.75
2022-11-25T21:07:49.210Z,99727.56
2022-11-25T21:10:41.903Z,99725.41
2022-11-25T21:13:38.019Z,99730.28
2022-11-25T21:16:05.327Z,99725.94
2022-11-25T21:18:44.695Z,99733.56
2022-11-25T21:21:19.930Z,99740.13
2022-11-25T21:23:50.096Z,99751.31
2022-11-25T21:26:21.940Z,99748.84
2022-11-25T21:28:54.454Z,99745.03
2022-11-25T21:31:28.112Z,99742.31
2022-11-25T21:33:59.318Z,99735.22
2022-11-25T21:36:31.991Z,99752.41
2022-11-25T21:39:08.809Z,99756.50
2022-11-25T21:41:36.777Z,99763.59
2022-11-25T21:44:06.948Z,99754.59
2022-11-25T21:46:39.700Z,99762.50
2022-11-25T21:49:14.159Z,99776.16
2022-11-25T21:51:41.725Z,99782.16
2022-11-25T21:54:18.420Z,99789.28
2022-11-25T21:56:48.940Z,99786.00
2022-11-25T21:59:20.157Z,99790.34
2022-11-25T22:01:48.477Z,99786.78
2022-11-25T22:04:19.676Z,99788.72
2022-11-25T22:06:47.966Z,99789.81
2022-11-25T22:09:16.608Z,99795.56
2022-11-25T22:11:48.394Z,99803.47
2022-11-25T22:14:27.803Z,99793.66
2022-11-25T22:16:57.159Z,99777.81
2022-11-25T22:19:28.932Z,99802.41
2022-11-25T22:21:56.564Z,99797.75
2022-11-25T22:24:24.201Z,99795.03
2022-11-25T22:26:58.057Z,99793.38
2022-11-25T22:29:34.945Z,99804.28
2022-11-25T22:32:08.201Z,99799.66
2022-11-25T22:34:39.666Z,99796.91
2022-11-25T22:37:27.698Z,99799.66
2022-11-25T22:39:56.052Z,99799.06
2022-11-25T22:42:30.890Z,99804.53
2022-11-25T22:45:00.131Z,99783.78
2022-11-25T22:47:41.274Z,99801.53
2022-11-25T22:50:18.471Z,99802.38
2022-11-25T22:52:45.935Z,99808.38
2022-11-25T22:55:20.817Z,99810.56
2022-11-25T22:57:49.200Z,99807.28
2022-11-25T23:00:24.457Z,99812.19
2022-11-25T23:02:54.529Z,99801.00
2022-11-25T23:05:32.477Z,99821.44
2022-11-25T23:08:01.731Z,99819.25
2022-11-25T23:10:32.606Z,99812.97
2022-11-25T23:12:59.723Z,99801.50
2022-11-25T23:15:27.258Z,99819.22
2022-11-25T23:17:59.893Z,99814.59
2022-11-25T23:20:32.607Z,99821.97
2022-11-25T23:23:18.144Z,99817.28
2022-11-25T23:25:45.826Z,99828.97
2022-11-25T23:28:13.678Z,99819.38
2022-11-25T23:30:52.704Z,99831.63
2022-11-25T23:33:40.753Z,99817.38
2022-11-25T23:36:09.973Z,99838.16
2022-11-25T23:38:44.920Z,99830.81
2022-11-25T23:41:33.129Z,99837.59
2022-11-25T23:44:15.826Z,99845.22
2022-11-25T23:46:44.535Z,99841.06
2022-11-25T23:49:23.251Z,99846.00
2022-11-25T23:51:51.623Z,99853.91
2022-11-25T23:54:21.896Z,99853.38
2022-11-25T23:56:51.674Z,99862.66
2022-11-25T23:59:18.586Z,99864.59
